sensor_id;sensor_type;location;lat;lon;timestamp;pressure;altitude;pressure_sealevel;temperature;humidity
48636;BME280;34429;52.332;5.614;2022-07-17T00:00:38;102750.09;;;13.12;100.00
48636;BME280;34429;52.332;5.614;2022-07-17T00:03:08;102743.38;;;13.05;100.00
48636;BME280;34429;52.332;5.614;2022-07-17T00:05:39;102743.38;;;13.05;100.00
48636;BME280;34429;52.332;5.614;2022-07-17T00:08:08;102727.16;;;13.05;100.00
48636;BME280;34429;52.332;5.614;2022-07-17T00:10:39;102733.41;;;13.05;100.00
48636;BME280;34429;52.332;5.614;2022-07-17T00:13:09;102734.94;;;13.09;100.00
48636;BME280;34429;52.332;5.614;2022-07-17T00:15:37;102736.66;;;12.97;100.00
48636;BME280;34429;52.332;5.614;2022-07-17T00:18:06;102738.78;;;12.92;100.00
48636;BME280;34429;52.332;5.614;2022-07-17T00:20:35;102733.50;;;12.91;100.00
48636;BME280;34429;52.332;5.614;2022-07-17T00:23:06;102730.78;;;12.91;100.00
48636;BME280;34429;52.332;5.614;2022-07-17T00:25:34;102730.16;;;12.87;100.00
48636;BME280;34429;52.332;5.614;2022-07-17T00:28:03;102728.09;;;12.78;100.00
48636;BME280;34429;52.332;5.614;2022-07-17T00:30:32;102725.97;;;12.69;100.00
48636;BME280;34429;52.332;5.614;2022-07-17T00:33:00;102725.44;;;12.64;100.00
48636;BME280;34429;52.332;5.614;2022-07-17T00:35:29;102719.47;;;12.58;100.00
48636;BME280;34429;52.332;5.614;2022-07-17T00:37:57;102719.56;;;12.57;100.00
48636;BME280;34429;52.332;5.614;2022-07-17T00:40:32;102722.94;;;12.60;100.00
48636;BME280;34429;52.332;5.614;2022-07-17T00:43:00;102725.09;;;12.55;100.00
48636;BME280;34429;52.332;5.614;2022-07-17T00:45:31;102723.66;;;12.50;100.00
48636;BME280;34429;52.332;5.614;2022-07-17T00:48:01;102716.66;;;12.47;100.00
48636;BME280;34429;52.332;5.614;2022-07-17T00:50:34;102715.00;;;12.44;100.00
48636;BME280;34429;52.332;5.614;2022-07-17T00:53:04;102719.25;;;12.49;100.00
48636;BME280;34429;52.332;5.614;2022-07-17T00:55:35;102717.72;;;12.44;100.00
48636;BME280;34429;52.332;5.614;2022-07-17T00:58:04;102720.53;;;12.43;100.00
48636;BME280;34429;52.332;5.614;2022-07-17T01:00:33;102724.84;;;12.46;100.00
48636;BME280;34429;52.332;5.614;2022-07-17T01:03:07;102720.72;;;12.40;100.00
48636;BME280;34429;52.332;5.614;2022-07-17T01:05:36;102721.13;;;12.34;100.00
48636;BME280;34429;52.332;5.614;2022-07-17T01:08:05;102730.00;;;12.36;100.00
48636;BME280;34429;52.332;5.614;2022-07-17T01:10:36;102722.19;;;12.31;100.00
48636;BME280;34429;52.332;5.614;2022-07-17T01:13:05;102723.47;;;12.25;100.00
48636;BME280;34429;52.332;5.614;2022-07-17T01:15:36;102720.88;;;12.24;100.00
48636;BME280;34429;52.332;5.614;2022-07-17T01:18:07;102726.72;;;12.31;100.00
48636;BME280;34429;52.332;5.614;2022-07-17T01:20:37;102729.41;;;12.31;100.00
48636;BME280;34429;52.332;5.614;2022-07-17T01:23:09;102730.00;;;12.36;100.00
48636;BME280;34429;52.332;5.614;2022-07-17T01:25:38;102729.72;;;12.26;100.00
48636;BME280;34429;52.332;5.614;2022-07-17T01:28:07;102743.63;;;12.20;100.00
48636;BME280;34429;52.332;5.614;2022-07-17T01:30:35;102733.53;;;12.09;100.00
48636;BME280;34429;52.332;5.614;2022-07-17T01:33:04;102740.59;;;11.97;100.00
48636;BME280;34429;52.332;5.614;2022-07-17T01:35:32;102729.72;;;11.99;100.00
48636;BME280;34429;52.332;5.614;2022-07-17T01:38:00;102738.19;;;11.92;100.00
48636;BME280;34429;52.332;5.614;2022-07-17T01:40:31;102730.66;;;11.83;100.00
48636;BME280;34429;52.332;5.614;2022-07-17T01:42:59;102733.75;;;11.77;100.00
48636;BME280;34429;52.332;5.614;2022-07-17T01:45:28;102733.34;;;11.83;100.00
48636;BME280;34429;52.332;5.614;2022-07-17T01:47:56;102731.44;;;11.85;100.00
48636;BME280;34429;52.332;5.614;2022-07-17T01:50:24;102733.09;;;11.73;100.00
48636;BME280;34429;52.332;5.614;2022-07-17T01:52:54;102732.59;;;11.67;100.00
48636;BME280;34429;52.332;5.614;2022-07-17T01:55:22;102724.50;;;11.67;100.00
48636;BME280;34429;52.332;5.614;2022-07-17T01:57:53;102729.81;;;11.68;100.00
48636;BME280;34429;52.332;5.614;2022-07-17T02:00:21;102728.16;;;11.80;100.00
48636;BME280;34429;52.332;5.614;2022-07-17T02:02:51;102722.97;;;11.77;100.00
48636;BME280;34429;52.332;5.614;2022-07-17T02:05:20;102712.56;;;11.71;100.00
48636;BME280;34429;52.332;5.614;2022-07-17T02:07:50;102719.50;;;11.75;100.00
48636;BME280;34429;52.332;5.614;2022-07-17T02:10:19;102712.16;;;11.77;100.00
48636;BME280;34429;52.332;5.614;2022-07-17T02:12:48;102716.31;;;11.83;100.00
48636;BME280;34429;52.332;5.614;2022-07-17T02:15:18;102717.16;;;11.83;100.00
48636;BME280;34429;52.332;5.614;2022-07-17T02:17:48;102721.00;;;11.79;100.00
48636;BME280;34429;52.332;5.614;2022-07-17T02:20:17;102721.81;;;11.81;100.00
48636;BME280;34429;52.332;5.614;2022-07-17T02:22:45;102715.63;;;11.79;100.00
48636;BME280;34429;52.332;5.614;2022-07-17T02:25:14;102724.91;;;11.75;100.00
48636;BME280;34429;52.332;5.614;2022-07-17T02:27:43;102729.22;;;11.78;100.00
48636;BME280;34429;52.332;5.614;2022-07-17T02:30:13;102738.66;;;11.85;100.00
48636;BME280;34429;52.332;5.614;2022-07-17T02:32:45;102739.44;;;11.87;100.00
48636;BME280;34429;52.332;5.614;2022-07-17T02:35:13;102753.97;;;11.70;100.00
48636;BME280;34429;52.332;5.614;2022-07-17T02:37:42;102745.31;;;11.65;100.00
48636;BME280;34429;52.332;5.614;2022-07-17T02:40:11;102733.00;;;11.61;100.00
48636;BME280;34429;52.332;5.614;2022-07-17T02:42:40;102749.06;;;11.62;100.00
48636;BME280;34429;52.332;5.614;2022-07-17T02:45:09;102745.31;;;11.65;100.00
48636;BME280;34429;52.332;5.614;2022-07-17T02:47:37;102745.53;;;11.62;100.00
48636;BME280;34429;52.332;5.614;2022-07-17T02:50:09;102738.97;;;11.51;100.00
48636;BME280;34429;52.332;5.614;2022-07-17T02:52:38;102735.50;;;11.49;100.00
48636;BME280;34429;52.332;5.614;2022-07-17T02:55:07;102738.78;;;11.54;100.00
48636;BME280;34429;52.332;5.614;2022-07-17T02:57:36;102735.88;;;11.57;100.00
48636;BME280;34429;52.332;5.614;2022-07-17T03:00:08;102736.66;;;11.60;100.00
48636;BME280;34429;52.332;5.614;2022-07-17T03:02:37;102738.59;;;11.57;100.00
48636;BME280;34429;52.332;5.614;2022-07-17T03:05:09;102727.09;;;11.54;100.00
48636;BME280;34429;52.332;5.614;2022-07-17T03:07:37;102729.13;;;11.50;100.00
48636;BME280;34429;52.332;5.614;2022-07-17T03:10:08;102723.84;;;11.49;100.00
48636;BME280;34429;52.332;5.614;2022-07-17T03:12:37;102716.50;;;11.51;100.00
48636;BME280;34429;52.332;5.614;2022-07-17T03:15:06;102712.00;;;11.51;100.00
48636;BME280;34429;52.332;5.614;2022-07-17T03:17:34;102712.28;;;11.47;100.00
48636;BME280;34429;52.332;5.614;2022-07-17T03:20:03;102711.41;;;11.46;100.00
48636;BME280;34429;52.332;5.614;2022-07-17T03:22:34;102709.09;;;11.40;100.00
48636;BME280;34429;52.332;5.614;2022-07-17T03:25:03;102725.28;;;11.40;100.00
48636;BME280;34429;52.332;5.614;2022-07-17T03:27:32;102726.13;;;11.40;100.00
48636;BME280;34429;52.332;5.614;2022-07-17T03:30:00;102735.03;;;11.43;100.00
48636;BME280;34429;52.332;5.614;2022-07-17T03:32:29;102729.25;;;11.49;100.00
48636;BME280;34429;52.332;5.614;2022-07-17T03:34:57;102733.09;;;11.45;100.00
48636;BME280;34429;52.332;5.614;2022-07-17T03:37:26;102736.81;;;11.28;100.00
48636;BME280;34429;52.332;5.614;2022-07-17T03:39:58;102731.41;;;11.28;100.00
48636;BME280;34429;52.332;5.614;2022-07-17T03:42:26;102730.47;;;11.29;100.00
48636;BME280;34429;52.332;5.614;2022-07-17T03:44:55;102737.97;;;11.38;100.00
48636;BME280;34429;52.332;5.614;2022-07-17T03:47:23;102739.53;;;11.42;100.00
48636;BME280;34429;52.332;5.614;2022-07-17T03:49:51;102739.53;;;11.42;100.00
48636;BME280;34429;52.332;5.614;2022-07-17T03:52:19;102729.31;;;11.33;100.00
48636;BME280;34429;52.332;5.614;2022-07-17T03:54:48;102746.75;;;11.42;100.00
48636;BME280;34429;52.332;5.614;2022-07-17T03:57:19;102752.47;;;11.51;100.00
48636;BME280;34429;52.332;5.614;2022-07-17T03:59:47;102761.72;;;11.62;100.00
48636;BME280;34429;52.332;5.614;2022-07-17T04:02:15;102761.13;;;11.71;100.00
48636;BME280;34429;52.332;5.614;2022-07-17T04:04:43;102757.81;;;11.80;100.00
48636;BME280;34429;52.332;5.614;2022-07-17T04:07:12;102746.19;;;11.80;100.00
48636;BME280;34429;52.332;5.614;2022-07-17T04:09:55;102753.03;;;11.85;100.00
48636;BME280;34429;52.332;5.614;2022-07-17T04:12:27;102749.25;;;12.02;100.00
48636;BME280;34429;52.332;5.614;2022-07-17T04:14:55;102742.59;;;12.08;100.00
48636;BME280;34429;52.332;5.614;2022-07-17T04:17:24;102747.50;;;12.01;100.00
48636;BME280;34429;52.332;5.614;2022-07-17T04:19:53;102761.31;;;11.97;100.00
48636;BME280;34429;52.332;5.614;2022-07-17T04:22:21;102760.84;;;12.04;100.00
48636;BME280;34429;52.332;5.614;2022-07-17T04:24:50;102760.75;;;12.06;100.00
48636;BME280;34429;52.332;5.614;2022-07-17T04:27:18;102762.66;;;12.04;100.00
48636;BME280;34429;52.332;5.614;2022-07-17T04:29:49;102768.72;;;12.07;100.00
48636;BME280;34429;52.332;5.614;2022-07-17T04:32:17;102764.78;;;11.99;100.00
48636;BME280;34429;52.332;5.614;2022-07-17T04:34:47;102761.69;;;12.05;100.00
48636;BME280;34429;52.332;5.614;2022-07-17T04:37:15;102774.47;;;12.16;100.00
48636;BME280;34429;52.332;5.614;2022-07-17T04:39:44;102762.63;;;12.18;100.00
48636;BME280;34429;52.332;5.614;2022-07-17T04:42:12;102762.44;;;12.21;100.00
48636;BME280;34429;52.332;5.614;2022-07-17T04:44:40;102757.50;;;12.28;100.00
48636;BME280;34429;52.332;5.614;2022-07-17T04:47:11;102752.84;;;12.30;100.00
48636;BME280;34429;52.332;5.614;2022-07-17T04:49:40;102748.94;;;12.21;100.00
48636;BME280;34429;52.332;5.614;2022-07-17T04:52:08;102753.38;;;12.22;100.00
48636;BME280;34429;52.332;5.614;2022-07-17T04:54:36;102747.97;;;12.22;100.00
48636;BME280;34429;52.332;5.614;2022-07-17T04:57:04;102745.16;;;12.24;100.00
48636;BME280;34429;52.332;5.614;2022-07-17T04:59:33;102742.53;;;12.37;100.00
48636;BME280;34429;52.332;5.614;2022-07-17T05:02:02;102751.19;;;12.42;100.00
48636;BME280;34429;52.332;5.614;2022-07-17T05:04:33;102742.75;;;12.34;100.00
48636;BME280;34429;52.332;5.614;2022-07-17T05:07:01;102739.06;;;12.35;100.00
48636;BME280;34429;52.332;5.614;2022-07-17T05:09:30;102731.72;;;12.37;100.00
48636;BME280;34429;52.332;5.614;2022-07-17T05:11:58;102734.16;;;12.54;100.00
48636;BME280;34429;52.332;5.614;2022-07-17T05:14:26;102727.47;;;12.60;100.00
48636;BME280;34429;52.332;5.614;2022-07-17T05:16:55;102734.22;;;12.80;100.00
48636;BME280;34429;52.332;5.614;2022-07-17T05:19:23;102735.75;;;12.84;100.00
48636;BME280;34429;52.332;5.614;2022-07-17T05:21:54;102738.25;;;12.87;100.00
48636;BME280;34429;52.332;5.614;2022-07-17T05:24:22;102741.94;;;12.99;100.00
48636;BME280;34429;52.332;5.614;2022-07-17T05:26:51;102733.94;;;12.97;100.00
48636;BME280;34429;52.332;5.614;2022-07-17T05:29:19;102740.31;;;12.96;100.00
48636;BME280;34429;52.332;5.614;2022-07-17T05:31:48;102745.97;;;13.06;100.00
48636;BME280;34429;52.332;5.614;2022-07-17T05:34:16;102748.69;;;13.19;100.00
48636;BME280;34429;52.332;5.614;2022-07-17T05:36:44;102749.91;;;13.41;100.00
48636;BME280;34429;52.332;5.614;2022-07-17T05:39:17;102760.09;;;13.50;100.00
48636;BME280;34429;52.332;5.614;2022-07-17T05:41:45;102752.81;;;13.63;100.00
48636;BME280;34429;52.332;5.614;2022-07-17T05:44:13;102763.38;;;13.92;100.00
48636;BME280;34429;52.332;5.614;2022-07-17T05:46:42;102761.09;;;13.99;100.00
48636;BME280;34429;52.332;5.614;2022-07-17T05:49:10;102755.63;;;14.12;100.00
48636;BME280;34429;52.332;5.614;2022-07-17T05:51:38;102746.38;;;14.27;100.00
48636;BME280;34429;52.332;5.614;2022-07-17T05:54:07;102734.50;;;14.41;100.00
48636;BME280;34429;52.332;5.614;2022-07-17T05:56:38;102740.88;;;14.77;100.00
48636;BME280;34429;52.332;5.614;2022-07-17T05:59:06;102742.78;;;14.99;100.00
48636;BME280;34429;52.332;5.614;2022-07-17T06:01:34;102747.38;;;15.10;100.00
48636;BME280;34429;52.332;5.614;2022-07-17T06:04:03;102757.13;;;15.13;100.00
48636;BME280;34429;52.332;5.614;2022-07-17T06:06:31;102755.00;;;15.05;100.00
48636;BME280;34429;52.332;5.614;2022-07-17T06:08:59;102752.66;;;15.00;100.00
48636;BME280;34429;52.332;5.614;2022-07-17T06:11:28;102765.75;;;14.82;100.00
48636;BME280;34429;52.332;5.614;2022-07-17T06:13:59;102764.78;;;15.07;100.00
48636;BME280;34429;52.332;5.614;2022-07-17T06:16:27;102768.47;;;15.18;100.00
48636;BME280;34429;52.332;5.614;2022-07-17T06:18:55;102764.84;;;15.41;100.00
48636;BME280;34429;52.332;5.614;2022-07-17T06:21:24;102764.13;;;15.62;100.00
48636;BME280;34429;52.332;5.614;2022-07-17T06:23:52;102758.16;;;15.57;100.00
48636;BME280;34429;52.332;5.614;2022-07-17T06:26:20;102760.91;;;15.68;100.00
48636;BME280;34429;52.332;5.614;2022-07-17T06:28:49;102767.31;;;15.45;100.00
48636;BME280;34429;52.332;5.614;2022-07-17T06:31:19;102781.63;;;15.58;100.00
48636;BME280;34429;52.332;5.614;2022-07-17T06:33:48;102781.09;;;15.53;100.00
48636;BME280;34429;52.332;5.614;2022-07-17T06:36:17;102790.75;;;15.68;100.00
48636;BME280;34429;52.332;5.614;2022-07-17T06:38:45;102792.28;;;15.95;100.00
48636;BME280;34429;52.332;5.614;2022-07-17T06:41:13;102795.19;;;16.26;100.00
48636;BME280;34429;52.332;5.614;2022-07-17T06:43:42;102809.25;;;16.42;100.00
48636;BME280;34429;52.332;5.614;2022-07-17T06:46:10;102806.53;;;16.42;100.00
48636;BME280;34429;52.332;5.614;2022-07-17T06:48:41;102804.06;;;17.15;100.00
48636;BME280;34429;52.332;5.614;2022-07-17T06:51:09;102801.75;;;17.11;100.00
48636;BME280;34429;52.332;5.614;2022-07-17T06:53:37;102799.69;;;17.45;100.00
48636;BME280;34429;52.332;5.614;2022-07-17T06:56:06;102795.22;;;17.44;100.00
48636;BME280;34429;52.332;5.614;2022-07-17T06:58:34;102795.91;;;17.37;100.00
48636;BME280;34429;52.332;5.614;2022-07-17T07:01:02;102794.81;;;17.70;100.00
48636;BME280;34429;52.332;5.614;2022-07-17T07:03:31;102790.25;;;17.49;100.00
48636;BME280;34429;52.332;5.614;2022-07-17T07:06:01;102796.00;;;17.77;100.00
48636;BME280;34429;52.332;5.614;2022-07-17T07:08:30;102797.53;;;17.70;100.00
48636;BME280;34429;52.332;5.614;2022-07-17T07:10:58;102804.38;;;17.64;100.00
48636;BME280;34429;52.332;5.614;2022-07-17T07:13:26;102800.97;;;17.72;100.00
48636;BME280;34429;52.332;5.614;2022-07-17T07:15:55;102787.63;;;17.69;100.00
48636;BME280;34429;52.332;5.614;2022-07-17T07:18:23;102792.09;;;17.80;100.00
48636;BME280;34429;52.332;5.614;2022-07-17T07:20:52;102790.50;;;17.98;100.00
48636;BME280;34429;52.332;5.614;2022-07-17T07:23:22;102798.34;;;18.32;100.00
48636;BME280;34429;52.332;5.614;2022-07-17T07:25:51;102797.97;;;18.56;100.00
48636;BME280;34429;52.332;5.614;2022-07-17T07:28:19;102800.81;;;18.45;100.00
48636;BME280;34429;52.332;5.614;2022-07-17T07:30:47;102792.13;;;19.00;100.00
48636;BME280;34429;52.332;5.614;2022-07-17T07:33:16;102793.13;;;18.89;100.00
48636;BME280;34429;52.332;5.614;2022-07-17T07:35:44;102801.63;;;18.86;100.00
48636;BME280;34429;52.332;5.614;2022-07-17T07:38:12;102791.41;;;18.88;100.00
48636;BME280;34429;52.332;5.614;2022-07-17T07:40:43;102800.88;;;19.14;100.00
48636;BME280;34429;52.332;5.614;2022-07-17T07:43:12;102802.09;;;19.58;100.00
48636;BME280;34429;52.332;5.614;2022-07-17T07:45:40;102787.16;;;19.43;100.00
48636;BME280;34429;52.332;5.614;2022-07-17T07:48:08;102800.72;;;19.72;100.00
48636;BME280;34429;52.332;5.614;2022-07-17T07:50:36;102800.78;;;20.00;100.00
48636;BME280;34429;52.332;5.614;2022-07-17T07:53:05;102800.88;;;19.81;100.00
48636;BME280;34429;52.332;5.614;2022-07-17T07:55:33;102796.34;;;19.52;100.00
48636;BME280;34429;52.332;5.614;2022-07-17T07:58:05;102789.34;;;19.30;100.00
48636;BME280;34429;52.332;5.614;2022-07-17T08:00:35;102788.81;;;19.73;100.00
48636;BME280;34429;52.332;5.614;2022-07-17T08:03:04;102792.47;;;19.54;100.00
48636;BME280;34429;52.332;5.614;2022-07-17T08:05:32;102792.31;;;19.56;100.00
48636;BME280;34429;52.332;5.614;2022-07-17T08:08:01;102792.28;;;19.66;100.00
48636;BME280;34429;52.332;5.614;2022-07-17T08:10:30;102788.81;;;19.83;100.00
48636;BME280;34429;52.332;5.614;2022-07-17T08:12:58;102786.66;;;20.05;100.00
48636;BME280;34429;52.332;5.614;2022-07-17T08:15:29;102786.34;;;19.80;100.00
48636;BME280;34429;52.332;5.614;2022-07-17T08:17:58;102793.25;;;19.84;100.00
48636;BME280;34429;52.332;5.614;2022-07-17T08:20:26;102787.72;;;20.04;100.00
48636;BME280;34429;52.332;5.614;2022-07-17T08:22:55;102793.81;;;20.61;100.00
48636;BME280;34429;52.332;5.614;2022-07-17T08:25:23;102791.47;;;20.21;100.00
48636;BME280;34429;52.332;5.614;2022-07-17T08:27:52;102804.53;;;19.99;100.00
48636;BME280;34429;52.332;5.614;2022-07-17T08:30:21;102800.44;;;19.75;100.00
48636;BME280;34429;52.332;5.614;2022-07-17T08:32:52;102808.84;;;20.02;100.00
48636;BME280;34429;52.332;5.614;2022-07-17T08:35:20;102807.28;;;20.45;100.00
48636;BME280;34429;52.332;5.614;2022-07-17T08:37:51;102806.47;;;20.62;100.00
48636;BME280;34429;52.332;5.614;2022-07-17T08:40:21;102792.25;;;21.13;100.00
48636;BME280;34429;52.332;5.614;2022-07-17T08:42:51;102789.31;;;20.70;100.00
48636;BME280;34429;52.332;5.614;2022-07-17T08:45:20;102793.81;;;20.61;100.00
48636;BME280;34429;52.332;5.614;2022-07-17T08:47:53;102786.91;;;20.67;100.00
48636;BME280;34429;52.332;5.614;2022-07-17T08:50:24;102792.97;;;20.97;100.00
48636;BME280;34429;52.332;5.614;2022-07-17T08:52:53;102786.94;;;20.93;100.00
48636;BME280;34429;52.332;5.614;2022-07-17T08:55:22;102799.22;;;20.71;100.00
48636;BME280;34429;52.332;5.614;2022-07-17T08:57:51;102794.63;;;20.72;100.00
48636;BME280;34429;52.332;5.614;2022-07-17T09:00:21;102789.84;;;20.74;100.00
48636;BME280;34429;52.332;5.614;2022-07-17T09:02:58;102788.09;;;21.09;100.00
48636;BME280;34429;52.332;5.614;2022-07-17T09:05:29;102783.44;;;21.27;100.00
48636;BME280;34429;52.332;5.614;2022-07-17T09:07:58;102780.13;;;21.42;100.00
48636;BME280;34429;52.332;5.614;2022-07-17T09:10:31;102783.56;;;22.13;98.27
48636;BME280;34429;52.332;5.614;2022-07-17T09:13:00;102790.03;;;21.61;98.43
48636;BME280;34429;52.332;5.614;2022-07-17T09:15:32;102786.03;;;22.16;98.06
48636;BME280;34429;52.332;5.614;2022-07-17T09:18:03;102792.97;;;22.02;96.08
48636;BME280;34429;52.332;5.614;2022-07-17T09:20:32;102795.75;;;22.53;88.36
48636;BME280;34429;52.332;5.614;2022-07-17T09:23:02;102795.59;;;22.20;96.70
48636;BME280;34429;52.332;5.614;2022-07-17T09:25:35;102796.78;;;22.09;89.38
48636;BME280;34429;52.332;5.614;2022-07-17T09:28:05;102796.03;;;22.33;93.36
48636;BME280;34429;52.332;5.614;2022-07-17T09:30:35;102799.00;;;22.05;97.55
48636;BME280;34429;52.332;5.614;2022-07-17T09:33:12;102792.44;;;22.33;90.19
48636;BME280;34429;52.332;5.614;2022-07-17T09:35:46;102785.50;;;22.20;86.81
48636;BME280;34429;52.332;5.614;2022-07-17T09:38:25;102783.72;;;22.54;90.21
48636;BME280;34429;52.332;5.614;2022-07-17T09:41:04;102786.28;;;22.39;85.07
48636;BME280;34429;52.332;5.614;2022-07-17T09:43:46;102787.03;;;22.90;91.27
48636;BME280;34429;52.332;5.614;2022-07-17T09:46:17;102782.41;;;22.91;80.48
48636;BME280;34429;52.332;5.614;2022-07-17T09:48:51;102785.47;;;22.96;81.62
48636;BME280;34429;52.332;5.614;2022-07-17T09:51:23;102792.19;;;22.85;84.74
48636;BME280;34429;52.332;5.614;2022-07-17T09:53:54;102778.13;;;23.21;76.09
48636;BME280;34429;52.332;5.614;2022-07-17T09:56:24;102778.19;;;23.69;86.49
48636;BME280;34429;52.332;5.614;2022-07-17T09:58:54;102775.94;;;23.73;76.52
48636;BME280;34429;52.332;5.614;2022-07-17T10:01:23;102762.38;;;23.71;73.97
48636;BME280;34429;52.332;5.614;2022-07-17T10:03:54;102760.91;;;23.44;77.73
48636;BME280;34429;52.332;5.614;2022-07-17T10:06:23;102762.34;;;23.79;90.11
48636;BME280;34429;52.332;5.614;2022-07-17T10:08:53;102769.34;;;23.09;81.23
48636;BME280;34429;52.332;5.614;2022-07-17T10:11:23;102761.53;;;23.71;84.23
48636;BME280;34429;52.332;5.614;2022-07-17T10:13:53;102762.97;;;23.42;76.08
48636;BME280;34429;52.332;5.614;2022-07-17T10:16:24;102770.31;;;23.58;73.67
48636;BME280;34429;52.332;5.614;2022-07-17T10:18:56;102777.50;;;23.67;69.60
48636;BME280;34429;52.332;5.614;2022-07-17T10:21:29;102768.31;;;23.35;75.74
48636;BME280;34429;52.332;5.614;2022-07-17T10:24:09;102772.25;;;23.08;70.77
48636;BME280;34429;52.332;5.614;2022-07-17T10:26:39;102773.00;;;23.74;70.50
48636;BME280;34429;52.332;5.614;2022-07-17T10:29:25;102770.31;;;23.66;77.70
48636;BME280;34429;52.332;5.614;2022-07-17T10:31:53;102762.78;;;23.52;69.88
48636;BME280;34429;52.332;5.614;2022-07-17T10:34:37;102765.19;;;23.47;69.61
48636;BME280;34429;52.332;5.614;2022-07-17T10:37:20;102772.13;;;23.90;66.43
48636;BME280;34429;52.332;5.614;2022-07-17T10:40:00;102776.41;;;23.85;68.43
48636;BME280;34429;52.332;5.614;2022-07-17T10:42:55;102780.25;;;23.67;65.44
48636;BME280;34429;52.332;5.614;2022-07-17T10:45:27;102790.34;;;23.91;65.65
48636;BME280;34429;52.332;5.614;2022-07-17T10:48:00;102780.22;;;23.75;67.10
48636;BME280;34429;52.332;5.614;2022-07-17T10:50:34;102778.44;;;24.30;73.74
48636;BME280;34429;52.332;5.614;2022-07-17T10:53:10;102772.56;;;24.10;66.09
48636;BME280;34429;52.332;5.614;2022-07-17T10:55:40;102774.91;;;24.45;67.97
48636;BME280;34429;52.332;5.614;2022-07-17T10:58:21;102778.59;;;24.37;68.80
48636;BME280;34429;52.332;5.614;2022-07-17T11:00:58;102770.59;;;24.51;66.01
48636;BME280;34429;52.332;5.614;2022-07-17T11:03:26;102771.69;;;24.41;64.89
48636;BME280;34429;52.332;5.614;2022-07-17T11:06:06;102763.88;;;24.22;68.10
48636;BME280;34429;52.332;5.614;2022-07-17T11:08:35;102774.97;;;24.68;62.34
48636;BME280;34429;52.332;5.614;2022-07-17T11:11:07;102771.44;;;24.28;61.32
48636;BME280;34429;52.332;5.614;2022-07-17T11:13:36;102768.56;;;24.13;60.48
48636;BME280;34429;52.332;5.614;2022-07-17T11:16:04;102766.81;;;24.52;61.45
48636;BME280;34429;52.332;5.614;2022-07-17T11:18:34;102767.38;;;24.70;59.87
48636;BME280;34429;52.332;5.614;2022-07-17T11:21:06;102763.28;;;25.04;61.83
48636;BME280;34429;52.332;5.614;2022-07-17T11:23:34;102762.75;;;24.71;60.76
48636;BME280;34429;52.332;5.614;2022-07-17T11:26:05;102761.91;;;24.07;60.07
48636;BME280;34429;52.332;5.614;2022-07-17T11:28:38;102758.78;;;24.42;62.40
48636;BME280;34429;52.332;5.614;2022-07-17T11:31:17;102760.72;;;24.33;61.88
48636;BME280;34429;52.332;5.614;2022-07-17T11:33:50;102756.72;;;24.67;58.50
48636;BME280;34429;52.332;5.614;2022-07-17T11:36:26;102760.69;;;24.88;58.36
48636;BME280;34429;52.332;5.614;2022-07-17T11:38:56;102759.25;;;25.15;59.87
48636;BME280;34429;52.332;5.614;2022-07-17T11:41:32;102754.75;;;24.99;58.19
48636;BME280;34429;52.332;5.614;2022-07-17T11:44:01;102750.69;;;25.10;56.85
48636;BME280;34429;52.332;5.614;2022-07-17T11:46:31;102747.91;;;24.95;59.37
48636;BME280;34429;52.332;5.614;2022-07-17T11:48:59;102746.69;;;24.74;57.67
48636;BME280;34429;52.332;5.614;2022-07-17T11:51:38;102747.84;;;25.18;58.31
48636;BME280;34429;52.332;5.614;2022-07-17T11:54:10;102756.38;;;25.08;54.40
48636;BME280;34429;52.332;5.614;2022-07-17T11:56:40;102758.34;;;25.52;59.94
48636;BME280;34429;52.332;5.614;2022-07-17T11:59:09;102756.66;;;25.51;56.16
48636;BME280;34429;52.332;5.614;2022-07-17T12:01:43;102763.81;;;25.23;53.88
48636;BME280;34429;52.332;5.614;2022-07-17T12:04:14;102747.25;;;25.46;57.65
48636;BME280;34429;52.332;5.614;2022-07-17T12:06:45;102754.78;;;25.29;58.58
48636;BME280;34429;52.332;5.614;2022-07-17T12:09:13;102750.25;;;24.83;62.90
48636;BME280;34429;52.332;5.614;2022-07-17T12:11:46;102752.19;;;25.50;56.41
48636;BME280;34429;52.332;5.614;2022-07-17T12:14:15;102768.47;;;24.61;58.20
48636;BME280;34429;52.332;5.614;2022-07-17T12:16:44;102756.69;;;25.13;58.30
48636;BME280;34429;52.332;5.614;2022-07-17T12:19:15;102752.28;;;25.42;58.23
48636;BME280;34429;52.332;5.614;2022-07-17T12:21:55;102752.75;;;25.61;59.49
48636;BME280;34429;52.332;5.614;2022-07-17T12:24:25;102746.63;;;26.10;56.71
48636;BME280;34429;52.332;5.614;2022-07-17T12:26:55;102759.88;;;26.00;59.17
48636;BME280;34429;52.332;5.614;2022-07-17T12:29:24;102753.91;;;25.66;57.94
48636;BME280;34429;52.332;5.614;2022-07-17T12:32:05;102748.00;;;25.55;58.12
48636;BME280;34429;52.332;5.614;2022-07-17T12:34:35;102756.34;;;26.06;57.89
48636;BME280;34429;52.332;5.614;2022-07-17T12:37:06;102740.41;;;25.57;57.96
48636;BME280;34429;52.332;5.614;2022-07-17T12:39:34;102733.16;;;26.22;54.09
48636;BME280;34429;52.332;5.614;2022-07-17T12:42:03;102714.81;;;26.72;52.03
48636;BME280;34429;52.332;5.614;2022-07-17T12:44:33;102717.63;;;26.36;57.50
48636;BME280;34429;52.332;5.614;2022-07-17T12:47:01;102713.41;;;26.18;53.00
48636;BME280;34429;52.332;5.614;2022-07-17T12:49:30;102717.34;;;26.09;54.73
48636;BME280;34429;52.332;5.614;2022-07-17T12:51:58;102709.13;;;26.37;56.53
48636;BME280;34429;52.332;5.614;2022-07-17T12:54:29;102699.78;;;26.82;53.61
48636;BME280;34429;52.332;5.614;2022-07-17T12:56:57;102697.28;;;27.15;52.44